Abshers, North Carolina
Current Conditions -  °F | °C
As of 10:15 AM on Wednesday 22 Oct 2014 (Local Time) from KUKF Reporting Station
Clear Clear  
Wind Chill: 54°   Ceiling: Unl
Heat Index: 54°   Visibility: 10mi
Dew Point: 37°   Wind: 10mph
Humidity: 54%   Direction: 320°NW
Pressure: 30.15"   Gusts: NA
Location:  36.345°N, 81.0285°W
Report Text: KUKF 221415Z AUTO 32009KT 10SM CLR 12/03 A3015 RMK AO2
Loading
Personal Weather Stations






























Interactive Weather Map
Tropical Storm Tracking
New forecast layout! Learn more

10-Day Weather Forecast

Advertisements
Track Severe Weather on mobile